Robins AFB, Georgia
Current Conditions -  °F | °C
As of 6:58 PM on Friday 24 Oct 2014 (Local Time) from KWRB Reporting Station
Clear Clear  
Wind Chill: 63°   Ceiling: Unl
Heat Index: 63°   Visibility: 10mi
Dew Point: 54°   Wind: 3mph
Humidity: 74%   Direction: 130°SE
Pressure: 29.97"   Gusts: NA
Location:  32.6187°N, 83.5735°W
Report Text: KWRB 242258Z AUTO 13003KT 10SM CLR 17/12 A2997 RMK AO2 SLP151 T01700123
Loading
Personal Weather Stations






























Interactive Weather Map
Tropical Storm Tracking
New forecast layout! Learn more

10-Day Weather Forecast

Advertisements
Track Severe Weather on mobile